Time;durP1;ratioP1;P1;durP2;ratioP2;P2;SDS_P1;SDS_P2;PMS_P1;PMS_P2;Temp;Humidity;BMP_temperature;BMP_pressure;BME280_temperature;BME280_humidity;BME280_pressure;Samples;Min_cycle;Max_cycle;Signal;HPM_P1;HPM_P2
2024/01/21 00:02:05;;;;;;;;;;;;;;;;;;5021553;28;59305;-72
2024/01/21 00:04:30;;;;;;;;;;;;;;;;;;5021237;27;60326;-73
2024/01/21 00:06:55;;;;;;;;;;;;;;;;;;5021864;28;59944;-73
2024/01/21 00:09:20;;;;;;;;;;;;;;;;;;5020355;28;59640;-73
2024/01/21 00:11:45;;;;;;;;;;;;;;;;;;5021357;27;59971;-72
2024/01/21 00:14:10;;;;;;;;;;;;;;;;;;5021251;28;59631;-72
2024/01/21 00:16:36;;;;;;;;;;;;;;;;;;5022446;28;59428;-71
2024/01/21 00:19:01;;;;;;;;;;;;;;;;;;5020587;27;60809;-74
2024/01/21 00:21:26;;;;;;;;;;;;;;;;;;5023352;28;60176;-71
2024/01/21 00:23:51;;;;;;;;;;;;;;;;;;5023093;27;60537;-69
2024/01/21 00:26:16;;;;;;;;;;;;;;;;;;5021333;28;58970;-69
2024/01/21 00:28:41;;;;;;;;;;;;;;;;;;5020800;28;59013;-70
2024/01/21 00:31:06;;;;;;;;;;;;;;;;;;5019377;28;60912;-70
2024/01/21 00:33:31;;;;;;;;;;;;;;;;;;5021969;28;60272;-75
2024/01/21 00:35:56;;;;;;;;;;;;;;;;;;5021023;28;59579;-75
2024/01/21 00:38:22;;;;;;;;;;;;;;;;;;5021917;28;61295;-78
2024/01/21 00:40:47;;;;;;;;;;;;;;;;;;5021229;28;59442;-77
2024/01/21 00:43:12;;;;;;;;;;;;;;;;;;5006923;27;59522;-77
2024/01/21 00:45:37;;;;;;;;;;;;;;;;;;5050952;27;60781;-76
2024/01/21 00:48:02;;;;;;;;;;;;;;;;;;5020952;28;59945;-76
2024/01/21 00:50:27;;;;;;;;;;;;;;;;;;5020328;28;59682;-73
2024/01/21 00:52:52;;;;;;;;;;;;;;;;;;5020131;28;59421;-76
2024/01/21 00:55:18;;;;;;;;;;;;;;;;;;5018855;28;60153;-73
2024/01/21 00:57:44;;;;;;;;;;;;;;;;;;5018874;28;60652;-72
2024/01/21 01:00:09;;;;;;;;;;;;;;;;;;5018382;28;59543;-73
2024/01/21 01:02:34;;;;;;;;;;;;;;;;;;5020561;28;59549;-72
2024/01/21 01:04:59;;;;;;;;;;;;;;;;;;5020270;28;60003;-71
2024/01/21 01:07:25;;;;;;;;;;;;;;;;;;5021546;28;59451;-76
2024/01/21 01:09:50;;;;;;;;;;;;;;;;;;5021338;28;60610;-77
2024/01/21 01:12:15;;;;;;;;;;;;;;;;;;5020572;27;59465;-71
2024/01/21 01:14:43;;;;;;;;;;;;;;;;;;5022333;28;59183;-71
2024/01/21 01:17:08;;;;;;;;;;;;;;;;;;5020371;28;60929;-73
2024/01/21 01:19:33;;;;;;;;;;;;;;;;;;5019498;28;59239;-72
2024/01/21 01:21:58;;;;;;;;;;;;;;;;;;5022768;28;59851;-72
2024/01/21 01:24:23;;;;;;;;;;;;;;;;;;5020713;28;61170;-74
2024/01/21 01:26:48;;;;;;;;;;;;;;;;;;5021851;28;59265;-73
2024/01/21 01:29:14;;;;;;;;;;;;;;;;;;5021847;28;60533;-73
2024/01/21 01:31:39;;;;;;;;;;;;;;;;;;5018376;28;60599;-73
2024/01/21 01:34:04;;;;;;;;;;;;;;;;;;5018333;28;59711;-73
2024/01/21 01:36:29;;;;;;;;;;;;;;;;;;5015271;28;60553;-73
2024/01/21 01:38:54;;;;;;;;;;;;;;;;;;5017601;28;59570;-73
2024/01/21 01:41:19;;;;;;;;;;;;;;;;;;5017533;28;59261;-71
2024/01/21 01:43:44;;;;;;;;;;;;;;;;;;5017974;28;61739;-71
2024/01/21 01:46:09;;;;;;;;;;;;;;;;;;5019828;28;59303;-72
2024/01/21 01:48:34;;;;;;;;;;;;;;;;;;5019753;28;60189;-70
2024/01/21 01:50:59;;;;;;;;;;;;;;;;;;5018205;28;59728;-73
2024/01/21 01:53:25;;;;;;;;;;;;;;;;;;5017410;28;59538;-73
2024/01/21 01:55:50;;;;;;;;;;;;;;;;;;5019830;28;60454;-73
2024/01/21 01:58:15;;;;;;;;;;;;;;;;;;5017007;28;60368;-73
2024/01/21 02:00:40;;;;;;;;;;;;;;;;;;5018648;28;59530;-71
2024/01/21 02:03:05;;;;;;;;;;;;;;;;;;5018104;28;59467;-72
2024/01/21 02:05:30;;;;;;;;;;;;;;;;;;5018320;28;59487;-72
2024/01/21 02:07:55;;;;;;;;;;;;;;;;;;5020515;28;59699;-72
2024/01/21 02:10:20;;;;;;;;;;;;;;;;;;5021088;28;59557;-73
2024/01/21 02:12:45;;;;;;;;;;;;;;;;;;5020745;28;59557;-73
2024/01/21 02:15:12;;;;;;;;;;;;;;;;;;5020279;27;60254;-71
2024/01/21 02:17:37;;;;;;;;;;;;;;;;;;5021429;27;59571;-73
2024/01/21 02:20:02;;;;;;;;;;;;;;;;;;5019863;27;59553;-74
2024/01/21 02:22:27;;;;;;;;;;;;;;;;;;5022086;28;61271;-72
2024/01/21 02:24:52;;;;;;;;;;;;;;;;;;5021380;28;59496;-71
2024/01/21 02:27:17;;;;;;;;;;;;;;;;;;5021429;28;59548;-73
2024/01/21 02:29:42;;;;;;;;;;;;;;;;;;5019965;28;60464;-72
2024/01/21 02:32:08;;;;;;;;;;;;;;;;;;5022693;27;59699;-73
2024/01/21 02:34:33;;;;;;;;;;;;;;;;;;5017296;28;59455;-73
2024/01/21 02:36:58;;;;;;;;;;;;;;;;;;5022401;28;60096;-73
2024/01/21 02:39:24;;;;;;;;;;;;;;;;;;5019346;28;59508;-73
2024/01/21 02:41:49;;;;;;;;;;;;;;;;;;5021380;28;59700;-73
2024/01/21 02:44:14;;;;;;;;;;;;;;;;;;5019530;28;59740;-73
2024/01/21 02:46:39;;;;;;;;;;;;;;;;;;5023012;28;60001;-71
2024/01/21 02:49:04;;;;;;;;;;;;;;;;;;5022721;28;59708;-72
2024/01/21 02:51:30;;;;;;;;;;;;;;;;;;5021598;28;60402;-71
2024/01/21 02:53:55;;;;;;;;;;;;;;;;;;5020543;28;61234;-70
2024/01/21 02:56:21;;;;;;;;;;;;;;;;;;5021653;28;59710;-71
2024/01/21 02:58:46;;;;;;;;;;;;;;;;;;5022272;28;59587;-71
2024/01/21 03:01:11;;;;;;;;;;;;;;;;;;5021286;28;60129;-72
2024/01/21 03:03:36;;;;;;;;;;;;;;;;;;5022443;28;59001;-71
2024/01/21 03:06:02;;;;;;;;;;;;;;;;;;5022287;28;59727;-71
2024/01/21 03:08:27;;;;;;;;;;;;;;;;;;5021948;28;60257;-71
2024/01/21 03:10:53;;;;;;;;;;;;;;;;;;5022311;28;60257;-72
2024/01/21 03:13:18;;;;;;;;;;;;;;;;;;5022554;27;59211;-71
2024/01/21 03:15:43;;;;;;;;;;;;;;;;;;5022962;28;59462;-70
2024/01/21 03:18:08;;;;;;;;;;;;;;;;;;5022233;28;59184;-71
2024/01/21 03:20:33;;;;;;;;;;;;;;;;;;5022049;28;59864;-72
2024/01/21 03:22:59;;;;;;;;;;;;;;;;;;5021811;28;59598;-71
2024/01/21 03:25:24;;;;;;;;;;;;;;;;;;5022575;28;59174;-71
2024/01/21 03:27:49;;;;;;;;;;;;;;;;;;5023594;28;61188;-71
2024/01/21 03:30:14;;;;;;;;;;;;;;;;;;5021897;28;59274;-71
2024/01/21 03:32:39;;;;;;;;;;;;;;;;;;5019237;28;59614;-71
2024/01/21 03:35:04;;;;;;;;;;;;;;;;;;5018921;28;59541;-74
2024/01/21 03:37:29;;;;;;;;;;;;;;;;;;5022299;27;60132;-70
2024/01/21 03:39:54;;;;;;;;;;;;;;;;;;5023262;28;60258;-72
2024/01/21 03:42:19;;;;;;;;;;;;;;;;;;5020617;28;59687;-69
2024/01/21 03:44:47;;;;;;;;;;;;;;;;;;5016998;28;60790;-71
2024/01/21 03:47:12;;;;;;;;;;;;;;;;;;5022603;28;61027;-71
2024/01/21 03:49:37;;;;;;;;;;;;;;;;;;5016709;28;60805;-69
2024/01/21 03:52:03;;;;;;;;;;;;;;;;;;5020021;28;59432;-69
2024/01/21 03:54:28;;;;;;;;;;;;;;;;;;5020177;28;60890;-69
2024/01/21 03:56:53;;;;;;;;;;;;;;;;;;5017230;28;59664;-70
2024/01/21 03:59:18;;;;;;;;;;;;;;;;;;5020822;28;60577;-70
2024/01/21 04:01:43;;;;;;;;;;;;;;;;;;5019889;27;59765;-70
2024/01/21 04:04:08;;;;;;;;;;;;;;;;;;5020084;28;59979;-71
2024/01/21 04:06:33;;;;;;;;;;;;;;;;;;5020396;28;59762;-70
2024/01/21 04:08:58;;;;;;;;;;;;;;;;;;5020184;28;59882;-70
2024/01/21 04:11:23;;;;;;;;;;;;;;;;;;5020517;28;59601;-70
2024/01/21 04:13:49;;;;;;;;;;;;;;;;;;5020119;28;60722;-71
2024/01/21 04:16:14;;;;;;;;;;;;;;;;;;5019470;28;59856;-71
2024/01/21 04:18:40;;;;;;;;;;;;;;;;;;5022560;28;61462;-70
2024/01/21 04:21:05;;;;;;;;;;;;;;;;;;5019069;28;59697;-70
2024/01/21 04:23:31;;;;;;;;;;;;;;;;;;5020952;28;60307;-71
2024/01/21 04:25:56;;;;;;;;;;;;;;;;;;5021425;27;61719;-70
2024/01/21 04:28:22;;;;;;;;;;;;;;;;;;5019500;28;78941;-71
2024/01/21 04:30:48;;;;;;;;;;;;;;;;;;5021891;28;59647;-70
2024/01/21 04:33:13;;;;;;;;;;;;;;;;;;5021245;28;60507;-70
2024/01/21 04:35:38;;;;;;;;;;;;;;;;;;5019356;28;59991;-70
2024/01/21 04:38:03;;;;;;;;;;;;;;;;;;5021846;28;60349;-70
2024/01/21 04:40:28;;;;;;;;;;;;;;;;;;5020054;28;59400;-70
2024/01/21 04:42:53;;;;;;;;;;;;;;;;;;5020601;28;59238;-70
2024/01/21 04:45:19;;;;;;;;;;;;;;;;;;5020658;28;61459;-70
2024/01/21 04:47:44;;;;;;;;;;;;;;;;;;5020509;28;60242;-70
2024/01/21 04:50:09;;;;;;;;;;;;;;;;;;5020331;28;59466;-70
2024/01/21 04:52:34;;;;;;;;;;;;;;;;;;5019262;28;61157;-70
2024/01/21 04:54:59;;;;;;;;;;;;;;;;;;5020562;28;59884;-70
2024/01/21 04:57:24;;;;;;;;;;;;;;;;;;5021222;28;59674;-70
2024/01/21 04:59:49;;;;;;;;;;;;;;;;;;5021728;28;60435;-69
2024/01/21 05:02:14;;;;;;;;;;;;;;;;;;5021716;27;59647;-69
2024/01/21 05:04:40;;;;;;;;;;;;;;;;;;5020860;28;60310;-68
2024/01/21 05:07:05;;;;;;;;;;;;;;;;;;5020140;28;59935;-68
2024/01/21 05:09:30;;;;;;;;;;;;;;;;;;5021388;28;59204;-68
2024/01/21 05:11:55;;;;;;;;;;;;;;;;;;5021117;28;59405;-69
2024/01/21 05:14:20;;;;;;;;;;;;;;;;;;5021079;27;59613;-70
2024/01/21 05:16:45;;;;;;;;;;;;;;;;;;5018892;28;59329;-72
2024/01/21 05:19:10;;;;;;;;;;;;;;;;;;5021985;28;59509;-71
2024/01/21 05:21:35;;;;;;;;;;;;;;;;;;5020287;28;59429;-70
2024/01/21 05:24:00;;;;;;;;;;;;;;;;;;5020246;28;59822;-72
2024/01/21 05:26:25;;;;;;;;;;;;;;;;;;5019656;28;59634;-72
2024/01/21 05:28:52;;;;;;;;;;;;;;;;;;5018446;28;59671;-72
2024/01/21 05:31:18;;;;;;;;;;;;;;;;;;5020810;28;60923;-72
2024/01/21 05:33:43;;;;;;;;;;;;;;;;;;5020504;28;59352;-72
2024/01/21 05:36:11;;;;;;;;;;;;;;;;;;5020196;28;59292;-69
2024/01/21 05:38:36;;;;;;;;;;;;;;;;;;5018554;27;59714;-72
2024/01/21 05:41:01;;;;;;;;;;;;;;;;;;5020370;28;59400;-72
2024/01/21 05:43:26;;;;;;;;;;;;;;;;;;5023332;28;64299;-70
2024/01/21 05:45:51;;;;;;;;;;;;;;;;;;5021882;28;60496;-69
2024/01/21 05:48:16;;;;;;;;;;;;;;;;;;5024222;28;59273;-69
2024/01/21 05:50:41;;;;;;;;;;;;;;;;;;5023768;28;61005;-72
2024/01/21 05:53:06;;;;;;;;;;;;;;;;;;5022400;27;60412;-70
2024/01/21 05:55:31;;;;;;;;;;;;;;;;;;5024195;28;59112;-70
2024/01/21 05:57:57;;;;;;;;;;;;;;;;;;5024582;28;60428;-70
2024/01/21 06:00:23;;;;;;;;;;;;;;;;;;5023397;28;59541;-70
2024/01/21 06:02:48;;;;;;;;;;;;;;;;;;5025486;28;59177;-70
2024/01/21 06:05:13;;;;;;;;;;;;;;;;;;5022757;28;60418;-69
2024/01/21 06:07:38;;;;;;;;;;;;;;;;;;5023361;28;59475;-70
2024/01/21 06:10:03;;;;;;;;;;;;;;;;;;5025238;28;59647;-70
2024/01/21 06:12:28;;;;;;;;;;;;;;;;;;5022325;28;59467;-69
2024/01/21 06:14:53;;;;;;;;;;;;;;;;;;5023800;28;59181;-69
2024/01/21 06:17:18;;;;;;;;;;;;;;;;;;5023657;28;60208;-69
2024/01/21 06:19:43;;;;;;;;;;;;;;;;;;5020956;28;60315;-70
2024/01/21 06:22:08;;;;;;;;;;;;;;;;;;5024153;28;59232;-68
2024/01/21 06:24:33;;;;;;;;;;;;;;;;;;5023016;28;59522;-69
2024/01/21 06:26:58;;;;;;;;;;;;;;;;;;5023923;28;59227;-68
2024/01/21 06:29:25;;;;;;;;;;;;;;;;;;5022234;28;61053;-69
2024/01/21 06:31:50;;;;;;;;;;;;;;;;;;5022376;28;60429;-68
2024/01/21 06:34:15;;;;;;;;;;;;;;;;;;5021594;28;59628;-69
2024/01/21 06:36:41;;;;;;;;;;;;;;;;;;5024931;28;60547;-69
2024/01/21 06:39:07;;;;;;;;;;;;;;;;;;5022745;27;59921;-69
2024/01/21 06:41:32;;;;;;;;;;;;;;;;;;5021956;28;59500;-68
2024/01/21 06:43:57;;;;;;;;;;;;;;;;;;5023009;28;60426;-69
2024/01/21 06:46:22;;;;;;;;;;;;;;;;;;5022837;28;59697;-69
2024/01/21 06:48:47;;;;;;;;;;;;;;;;;;5020259;28;61362;-69
2024/01/21 06:51:21;;;;;;;;;;;;;;;;;;5021969;28;59569;-69
2024/01/21 06:53:46;;;;;;;;;;;;;;;;;;5023709;27;59469;-69
2024/01/21 06:56:11;;;;;;;;;;;;;;;;;;5022750;28;60151;-68
2024/01/21 06:58:36;;;;;;;;;;;;;;;;;;5022418;28;59673;-69
2024/01/21 07:01:01;;;;;;;;;;;;;;;;;;5021865;28;59620;-68
2024/01/21 07:03:27;;;;;;;;;;;;;;;;;;5021371;28;60024;-68
2024/01/21 07:05:52;;;;;;;;;;;;;;;;;;5022834;28;60104;-68
2024/01/21 07:08:17;;;;;;;;;;;;;;;;;;5023024;28;59800;-69
2024/01/21 07:10:42;;;;;;;;;;;;;;;;;;5021735;28;60390;-69
2024/01/21 07:13:07;;;;;;;;;;;;;;;;;;5020557;28;60592;-68
2024/01/21 07:15:32;;;;;;;;;;;;;;;;;;5021948;27;60468;-69
2024/01/21 07:17:58;;;;;;;;;;;;;;;;;;5019839;27;59182;-68
2024/01/21 07:20:23;;;;;;;;;;;;;;;;;;5022252;28;59463;-69
2024/01/21 07:22:48;;;;;;;;;;;;;;;;;;5022181;28;61104;-69
2024/01/21 07:25:14;;;;;;;;;;;;;;;;;;5021157;28;59731;-70
2024/01/21 07:27:39;;;;;;;;;;;;;;;;;;5023876;28;59477;-69
2024/01/21 07:30:04;;;;;;;;;;;;;;;;;;5021660;28;60368;-69
2024/01/21 07:32:29;;;;;;;;;;;;;;;;;;5022140;28;59686;-69
2024/01/21 07:34:54;;;;;;;;;;;;;;;;;;5020986;27;60497;-69
2024/01/21 07:37:19;;;;;;;;;;;;;;;;;;5021752;27;59213;-70
2024/01/21 07:39:45;;;;;;;;;;;;;;;;;;5023071;28;59599;-70
2024/01/21 07:42:10;;;;;;;;;;;;;;;;;;5021599;28;61634;-69
2024/01/21 07:44:35;;;;;;;;;;;;;;;;;;5020286;28;60335;-69
2024/01/21 07:47:00;;;;;;;;;;;;;;;;;;5022230;28;59450;-69
2024/01/21 07:49:25;;;;;;;;;;;;;;;;;;5021329;28;59687;-69
2024/01/21 07:51:50;;;;;;;;;;;;;;;;;;5023028;28;59464;-70
2024/01/21 07:54:15;;;;;;;;;;;;;;;;;;5020561;28;60769;-70
2024/01/21 07:56:41;;;;;;;;;;;;;;;;;;5021741;27;59736;-70
2024/01/21 07:59:06;;;;;;;;;;;;;;;;;;5018956;28;59700;-70
2024/01/21 08:01:31;;;;;;;;;;;;;;;;;;5017530;28;61462;-70
2024/01/21 08:03:56;;;;;;;;;;;;;;;;;;5019561;28;59565;-70
2024/01/21 08:06:21;;;;;;;;;;;;;;;;;;5022428;28;59576;-70
2024/01/21 08:08:46;;;;;;;;;;;;;;;;;;5022036;27;59916;-71
2024/01/21 08:11:11;;;;;;;;;;;;;;;;;;5021554;28;59724;-70
2024/01/21 08:13:36;;;;;;;;;;;;;;;;;;5021098;28;59480;-70
2024/01/21 08:16:02;;;;;;;;;;;;;;;;;;5020934;28;59575;-70
2024/01/21 08:18:27;;;;;;;;;;;;;;;;;;5019692;28;59467;-70
2024/01/21 08:20:53;;;;;;;;;;;;;;;;;;5020860;28;60189;-70
2024/01/21 08:23:19;;;;;;;;;;;;;;;;;;5019737;28;59609;-70
2024/01/21 08:25:44;;;;;;;;;;;;;;;;;;5021345;28;59625;-71
2024/01/21 08:28:09;;;;;;;;;;;;;;;;;;5020697;28;61059;-71
2024/01/21 08:30:34;;;;;;;;;;;;;;;;;;5019360;28;59205;-70
2024/01/21 08:33:00;;;;;;;;;;;;;;;;;;5020348;28;59073;-70
2024/01/21 08:35:25;;;;;;;;;;;;;;;;;;5021284;28;59275;-71
2024/01/21 08:37:50;;;;;;;;;;;;;;;;;;5020830;28;59322;-71
2024/01/21 08:40:15;;;;;;;;;;;;;;;;;;5020914;28;59743;-70
2024/01/21 08:42:40;;;;;;;;;;;;;;;;;;5019802;28;59253;-71
2024/01/21 08:45:05;;;;;;;;;;;;;;;;;;5049115;27;59629;-70
2024/01/21 08:47:30;;;;;;;;;;;;;;;;;;5021012;28;60188;-70
2024/01/21 08:49:55;;;;;;;;;;;;;;;;;;5019632;28;59647;-71
2024/01/21 08:52:20;;;;;;;;;;;;;;;;;;5018371;28;59415;-70
2024/01/21 08:54:45;;;;;;;;;;;;;;;;;;5022158;28;59561;-70
2024/01/21 08:57:11;;;;;;;;;;;;;;;;;;5017470;28;59252;-70
2024/01/21 08:59:36;;;;;;;;;;;;;;;;;;5020075;28;60298;-70
2024/01/21 09:02:01;;;;;;;;;;;;;;;;;;5018094;28;59854;-70
2024/01/21 09:04:26;;;;;;;;;;;;;;;;;;5019236;28;59784;-69
2024/01/21 09:06:51;;;;;;;;;;;;;;;;;;5018235;28;60205;-70
2024/01/21 09:09:16;;;;;;;;;;;;;;;;;;5018705;28;61109;-69
2024/01/21 09:11:41;;;;;;;;;;;;;;;;;;5018236;28;59909;-69
2024/01/21 09:14:06;;;;;;;;;;;;;;;;;;5017762;28;60050;-69
2024/01/21 09:16:32;;;;;;;;;;;;;;;;;;5020525;28;59651;-70
2024/01/21 09:18:57;;;;;;;;;;;;;;;;;;5019608;28;61150;-69
2024/01/21 09:21:22;;;;;;;;;;;;;;;;;;5020125;28;59706;-69
2024/01/21 09:23:49;;;;;;;;;;;;;;;;;;5017402;28;59870;-70
2024/01/21 09:26:14;;;;;;;;;;;;;;;;;;5018601;28;60300;-70
2024/01/21 09:28:39;;;;;;;;;;;;;;;;;;5018460;28;59796;-69
2024/01/21 09:31:04;;;;;;;;;;;;;;;;;;5020473;28;58773;-69
2024/01/21 09:33:29;;;;;;;;;;;;;;;;;;5017577;28;60925;-69
2024/01/21 09:35:54;;;;;;;;;;;;;;;;;;5017349;28;59656;-70
2024/01/21 09:38:21;;;;;;;;;;;;;;;;;;5019571;28;59520;-71
2024/01/21 09:40:46;;;;;;;;;;;;;;;;;;5015414;28;59739;-70
2024/01/21 09:43:13;;;;;;;;;;;;;;;;;;5019842;28;59561;-70
2024/01/21 09:45:38;;;;;;;;;;;;;;;;;;5020235;28;59673;-71
2024/01/21 09:48:03;;;;;;;;;;;;;;;;;;5019967;28;59192;-70
2024/01/21 09:50:28;;;;;;;;;;;;;;;;;;5019408;28;59072;-69
2024/01/21 09:52:53;;;;;;;;;;;;;;;;;;5016242;28;60231;-67
2024/01/21 09:55:19;;;;;;;;;;;;;;;;;;5018165;28;59920;-68
2024/01/21 09:57:44;;;;;;;;;;;;;;;;;;5021661;28;59208;-67
2024/01/21 10:00:09;;;;;;;;;;;;;;;;;;5018379;28;59930;-67
2024/01/21 10:03:23;;;;;;;0.22;0.22;;;;;;;;;;5002113;27;59070;-77
2024/01/21 10:05:48;;;;;;;0.20;0.20;;;;;;;;;;4998524;28;58911;-77
2024/01/21 10:08:13;;;;;;;0.80;0.30;;;;;;;;;;5002086;28;58821;-79
2024/01/21 10:10:41;;;;;;;0.57;0.47;;;;;;;;;;4998592;28;58930;-80
2024/01/21 10:13:06;;;;;;;0.52;0.52;;;;;;;;;;4995332;28;58834;-78
2024/01/21 10:15:33;;;;;;;2.90;0.90;;;;;;;;;;4996788;28;58249;-79
2024/01/21 10:17:58;;;;;;;0.40;0.40;;;;;;;;;;4998218;28;58204;-79
2024/01/21 10:20:24;;;;;;;0.50;0.50;;;;;;;;;;4998295;28;58961;-78
2024/01/21 10:22:49;;;;;;;0.50;0.50;;;;;;;;;;4999859;28;59070;-79
2024/01/21 10:25:14;;;;;;;0.40;0.40;;;;;;;;;;4996745;28;58947;-77
2024/01/21 10:27:40;;;;;;;1.17;0.50;;;;;;;;;;4999263;28;59108;-77
2024/01/21 10:30:06;;;;;;;0.43;0.43;;;;;;;;;;4997646;28;58158;-78
2024/01/21 10:32:31;;;;;;;0.75;0.60;;;;;;;;;;4995140;28;59577;-77
2024/01/21 10:34:56;;;;;;;0.50;0.40;;;;;;;;;;4996189;28;58182;-77
2024/01/21 10:37:22;;;;;;;1.00;0.40;;;;;;;;;;4998420;28;58154;-71
2024/01/21 10:39:48;;;;;;;0.40;0.40;;;;;;;;;;4996898;28;58678;-70
2024/01/21 10:42:14;;;;;;;0.60;0.60;;;;;;;;;;4997685;28;58153;-71
2024/01/21 10:44:40;;;;;;;0.40;0.40;;;;;;;;;;4998422;28;59253;-71
2024/01/21 10:47:07;;;;;;;0.30;0.28;;;;;;;;;;4998281;28;58455;-71
2024/01/21 10:49:32;;;;;;;2.13;0.63;;;;;;;;;;5000309;28;57856;-71
2024/01/21 10:51:58;;;;;;;0.40;0.40;;;;;;;;;;4994522;28;58192;-71
2024/01/21 10:54:24;;;;;;;1.63;0.77;;;;;;;;;;5000438;28;58015;-71
2024/01/21 10:56:51;;;;;;;0.80;0.77;;;;;;;;;;4998014;28;58427;-77
2024/01/21 10:59:16;;;;;;;1.33;0.57;;;;;;;;;;4995686;28;60265;-75
2024/01/21 11:01:42;;;;;;;0.30;0.30;;;;;;;;;;4996373;28;58226;-75
2024/01/21 11:04:11;;;;;;;0.82;0.47;;;;;;;;;;4999176;28;57844;-75
2024/01/21 11:06:37;;;;;;;1.20;0.60;;;;;;;;;;4997670;28;63099;-75
2024/01/21 11:09:03;;;;;;;0.50;0.50;;;;;;;;;;4998366;28;58965;-77
2024/01/21 11:11:29;;;;;;;2.85;0.50;;;;;;;;;;4995001;28;60866;-76
2024/01/21 11:13:54;;;;;;;3.67;0.60;;;;;;;;;;4989220;28;58154;-75
2024/01/21 11:16:26;;;;;;;3.03;0.80;;;;;;;;;;4986180;28;58723;-75
2024/01/21 11:18:57;;;;;;;2.13;1.00;;;;;;;;;;4986666;28;59887;-75
2024/01/21 11:21:25;;;;;;;1.08;0.70;;;;;;;;;;4983270;28;58271;-75
2024/01/21 11:24:03;;;;;;;1.00;0.60;;;;;;;;;;4983817;28;59145;-77
2024/01/21 11:26:32;;;;;;;3.33;0.30;;;;;;;;;;4982598;28;60561;-76
2024/01/21 11:28:59;;;;;;;1.45;0.93;;;;;;;;;;4983885;28;58331;-74
2024/01/21 11:31:25;;;;;;;1.88;0.90;;;;;;;;;;4982454;28;58059;-77
2024/01/21 11:34:09;;;;;;;4.25;1.00;;;;;;;;;;4985978;28;58281;-77
2024/01/21 11:36:37;;;;;;;0.88;0.65;;;;;;;;;;4983693;28;58695;-75
2024/01/21 11:39:03;;;;;;;;;;;;;;;;;;4982979;28;59103;-75
2024/01/21 11:41:34;;;;;;;1.10;1.00;;;;;;;;;;4982435;28;58618;-74
2024/01/21 11:44:07;;;;;;;6.05;1.38;;;;;;;;;;4980870;28;58216;-81
2024/01/21 11:46:32;;;;;;;2.97;1.38;;;;;;;;;;4982514;28;58538;-78
2024/01/21 11:48:58;;;;;;;4.82;1.48;;;;;;;;;;4983073;28;58687;-79
2024/01/21 11:51:24;;;;;;;2.57;1.10;;;;;;;;;;4984593;28;57884;-78
2024/01/21 11:53:49;;;;;;;3.13;1.20;;;;;;;;;;4980945;28;58993;-78
2024/01/21 11:56:15;;;;;;;2.57;1.57;;;;;;;;;;4984670;28;58513;-75
2024/01/21 11:58:40;;;;;;;5.53;1.57;;;;;;;;;;4984053;28;58202;-77
2024/01/21 12:01:05;;;;;;;2.50;1.58;;;;;;;;;;4983469;28;57641;-76
2024/01/21 12:03:31;;;;;;;2.03;1.33;;;;;;;;;;4981806;28;58149;-75
2024/01/21 12:05:56;;;;;;;2.05;1.58;;;;;;;;;;4983578;28;58316;-79
2024/01/21 12:08:21;;;;;;;2.57;1.50;;;;;;;;;;4982642;28;59103;-78
2024/01/21 12:10:49;;;;;;;9.10;2.00;;;;;;;;;;4981827;28;57931;-77
2024/01/21 12:13:14;;;;;;;3.53;1.37;;;;;;;;;;4983324;28;58237;-78
2024/01/21 12:15:39;;;;;;;6.57;2.03;;;;;;;;;;4982666;28;58130;-77
2024/01/21 12:18:04;;;;;;;3.77;1.63;;;;;;;;;;4981450;28;58508;-78
2024/01/21 12:20:30;;;;;;;32.13;2.93;;;;;;;;;;4983732;28;58140;-77
2024/01/21 12:22:55;;;;;;;4.85;1.30;;;;;;;;;;4983729;28;57959;-76
2024/01/21 12:25:22;;;;;;;3.93;1.57;;;;;;;;;;4979782;28;59011;-78
2024/01/21 12:27:54;;;;;;;3.88;1.65;;;;;;;;;;4984303;28;58089;-77
2024/01/21 12:30:19;;;;;;;3.88;2.17;;;;;;;;;;4982843;28;58370;-77
2024/01/21 12:32:45;;;;;;;5.63;1.23;;;;;;;;;;4982482;28;58744;-74
2024/01/21 12:35:10;;;;;;;4.13;1.45;;;;;;;;;;4982591;28;58335;-75
2024/01/21 12:37:35;;;;;;;16.03;2.07;;;;;;;;;;4983540;28;59177;-74
2024/01/21 12:40:01;;;;;;;5.68;1.35;;;;;;;;;;4982604;28;58188;-76
2024/01/21 12:42:26;;;;;;;4.53;1.45;;;;;;;;;;4980751;28;59489;-75
2024/01/21 12:44:52;;;;;;;7.60;2.03;;;;;;;;;;4981779;28;59286;-75
2024/01/21 12:47:17;;;;;;;3.13;1.73;;;;;;;;;;4981309;28;58463;-74
2024/01/21 12:49:42;;;;;;;3.63;1.17;;;;;;;;;;4982884;28;58086;-75
2024/01/21 12:52:07;;;;;;;2.57;1.07;;;;;;;;;;4983238;28;60692;-75
2024/01/21 12:54:33;;;;;;;1.37;1.10;;;;;;;;;;4983342;28;58244;-75
2024/01/21 12:57:01;;;;;;;1.67;1.10;;;;;;;;;;4979117;28;59059;-76
2024/01/21 12:59:27;;;;;;;2.03;1.10;;;;;;;;;;4980261;28;57854;-75
2024/01/21 13:01:52;;;;;;;4.63;1.58;;;;;;;;;;4980655;28;58646;-74
2024/01/21 13:04:18;;;;;;;1.85;1.00;;;;;;;;;;4983070;28;58747;-74
2024/01/21 13:06:43;;;;;;;2.22;1.30;;;;;;;;;;4980824;28;58153;-73
2024/01/21 13:09:08;;;;;;;3.23;1.70;;;;;;;;;;4983876;28;58257;-75
2024/01/21 13:11:34;;;;;;;4.80;0.93;;;;;;;;;;4980677;28;58931;-75
2024/01/21 13:13:59;;;;;;;1.60;1.50;;;;;;;;;;4984425;28;58113;-75
2024/01/21 13:16:24;;;;;;;2.37;1.00;;;;;;;;;;4982921;28;58335;-75
2024/01/21 13:18:49;;;;;;;1.60;0.87;;;;;;;;;;4984578;28;58893;-75
2024/01/21 13:21:14;;;;;;;1.40;1.07;;;;;;;;;;4982651;28;57877;-75
2024/01/21 13:23:40;;;;;;;1.53;1.13;;;;;;;;;;4982516;28;59879;-78
2024/01/21 13:26:05;;;;;;;4.83;1.47;;;;;;;;;;4983911;28;58459;-76
2024/01/21 13:28:38;;;;;;;5.07;2.23;;;;;;;;;;4984655;28;58322;-76
2024/01/21 13:31:04;;;;;;;3.55;1.70;;;;;;;;;;4981697;28;60133;-77
2024/01/21 13:33:30;;;;;;;3.63;1.48;;;;;;;;;;4983135;28;58240;-76
2024/01/21 13:35:55;;;;;;;4.03;1.55;;;;;;;;;;4981465;28;58730;-77
2024/01/21 13:38:22;;;;;;;3.17;0.90;;;;;;;;;;4984236;28;58671;-77
2024/01/21 13:40:48;;;;;;;2.60;1.73;;;;;;;;;;4984254;28;58185;-77
2024/01/21 13:43:13;;;;;;;1.73;1.30;;;;;;;;;;4984992;28;59262;-77
2024/01/21 13:45:41;;;;;;;1.90;1.13;;;;;;;;;;4983014;28;58290;-76
2024/01/21 13:48:07;;;;;;;3.28;1.27;;;;;;;;;;4982165;28;57919;-77
2024/01/21 13:50:32;;;;;;;3.20;2.03;;;;;;;;;;4981682;28;59333;-77
2024/01/21 13:53:00;;;;;;;1.90;1.02;;;;;;;;;;4985555;28;57753;-77
2024/01/21 13:55:25;;;;;;;;;;;;;;;;;;4985830;28;58907;-77
2024/01/21 13:57:51;;;;;;;1.27;1.05;;;;;;;;;;4982736;28;59687;-76
2024/01/21 14:00:18;;;;;;;3.30;1.87;;;;;;;;;;4984398;28;59060;-76
2024/01/21 14:02:43;;;;;;;2.63;1.25;;;;;;;;;;4977001;28;59074;-71
2024/01/21 14:05:08;;;;;;;5.40;1.90;;;;;;;;;;4978555;28;58197;-71
2024/01/21 14:07:33;;;;;;;3.13;1.40;;;;;;;;;;4981452;28;58821;-71
2024/01/21 14:09:58;;;;;;;2.00;1.45;;;;;;;;;;4984605;28;58670;-73
2024/01/21 14:12:24;;;;;;;2.63;1.87;;;;;;;;;;4981123;28;58099;-78
2024/01/21 14:14:49;;;;;;;2.93;1.20;;;;;;;;;;4984393;28;58539;-79
2024/01/21 14:17:14;;;;;;;3.80;1.20;;;;;;;;;;4983479;28;58647;-81
2024/01/21 14:19:42;;;;;;;5.97;0.93;;;;;;;;;;4984659;28;58325;-78
2024/01/21 14:22:07;;;;;;;3.47;0.90;;;;;;;;;;4984250;28;58834;-77
2024/01/21 14:24:34;;;;;;;2.85;1.35;;;;;;;;;;4982606;28;57697;-77
2024/01/21 14:26:59;;;;;;;4.22;1.17;;;;;;;;;;4983313;28;58763;-77
2024/01/21 14:29:34;;;;;;;2.70;1.40;;;;;;;;;;4982198;28;58239;-77
2024/01/21 14:31:59;;;;;;;9.02;1.02;;;;;;;;;;4982415;28;58195;-79
2024/01/21 14:34:24;;;;;;;3.27;1.40;;;;;;;;;;4983125;28;58067;-77
2024/01/21 14:36:49;;;;;;;2.65;1.15;;;;;;;;;;4982743;28;59685;-79
2024/01/21 14:39:15;;;;;;;5.87;2.00;;;;;;;;;;4981768;28;58636;-81
2024/01/21 14:41:40;;;;;;;3.60;1.87;;;;;;;;;;4983095;28;58805;-79
2024/01/21 14:44:05;;;;;;;4.03;1.70;;;;;;;;;;4981111;28;58574;-77
2024/01/21 14:46:31;;;;;;;9.60;1.98;;;;;;;;;;4982253;28;58749;-78
2024/01/21 14:48:56;;;;;;;5.47;1.42;;;;;;;;;;4985433;28;59883;-79
2024/01/21 14:51:21;;;;;;;8.30;1.60;;;;;;;;;;4986997;28;59191;-79
2024/01/21 14:53:47;;;;;;;3.85;1.55;;;;;;;;;;4984761;28;57832;-79
2024/01/21 14:56:12;;;;;;;6.27;1.90;;;;;;;;;;4984512;28;58848;-78
2024/01/21 14:58:37;;;;;;;8.00;2.63;;;;;;;;;;4985106;28;58352;-77
2024/01/21 15:01:03;;;;;;;27.87;2.73;;;;;;;;;;4987527;28;58644;-79
2024/01/21 15:03:28;;;;;;;3.67;1.42;;;;;;;;;;4985743;28;59265;-77
2024/01/21 15:05:53;;;;;;;11.35;2.25;;;;;;;;;;4988811;28;57863;-77
2024/01/21 15:08:18;;;;;;;1.83;1.40;;;;;;;;;;4983646;28;57947;-77
2024/01/21 15:10:44;;;;;;;6.87;1.80;;;;;;;;;;4984062;28;58141;-77
2024/01/21 15:13:21;;;;;;;4.20;2.03;;;;;;;;;;4983971;28;60180;-70
2024/01/21 15:15:46;;;;;;;5.68;2.55;;;;;;;;;;4983997;28;63094;-71
2024/01/21 15:18:11;;;;;;;7.93;1.40;;;;;;;;;;4986314;28;58358;-79
2024/01/21 15:20:36;;;;;;;8.60;1.80;;;;;;;;;;4984270;28;58516;-80
2024/01/21 15:23:02;;;;;;;6.57;1.50;;;;;;;;;;4979787;28;59206;-78
2024/01/21 15:25:28;;;;;;;10.88;1.33;;;;;;;;;;4984732;28;58536;-77
2024/01/21 15:27:54;;;;;;;4.70;2.17;;;;;;;;;;4984028;28;59340;-77
2024/01/21 15:30:19;;;;;;;7.38;2.40;;;;;;;;;;4984174;28;57878;-76
2024/01/21 15:32:44;;;;;;;6.03;1.33;;;;;;;;;;4983211;28;59067;-78
2024/01/21 15:35:10;;;;;;;5.50;2.07;;;;;;;;;;4979273;28;58832;-78
2024/01/21 15:37:35;;;;;;;11.05;2.00;;;;;;;;;;4982142;28;58408;-77
2024/01/21 15:40:00;;;;;;;6.87;1.90;;;;;;;;;;4986646;28;58641;-78
2024/01/21 15:42:25;;;;;;;4.47;1.87;;;;;;;;;;4981858;28;59202;-81
2024/01/21 15:44:50;;;;;;;7.13;2.07;;;;;;;;;;4982177;28;57993;-82
2024/01/21 15:47:16;;;;;;;5.80;1.47;;;;;;;;;;4984245;28;58606;-82